createdAt,value
2018-07-22T00:00:29.723Z,95029.65
2018-07-22T00:02:55.697Z,95030.02
2018-07-22T00:05:21.705Z,95027.05
2018-07-22T00:07:47.716Z,95021.92
2018-07-22T00:10:13.730Z,95020.53
2018-07-22T00:12:39.741Z,95019.16
2018-07-22T00:15:05.745Z,95015.17
2018-07-22T00:17:31.754Z,95016.97
2018-07-22T00:19:57.768Z,95015.58
2018-07-22T00:22:23.764Z,95013.39
2018-07-22T00:24:49.779Z,95005.09
2018-07-22T00:27:15.782Z,95016.56
2018-07-22T00:29:41.810Z,95013.39
2018-07-22T00:32:07.817Z,95013.80
2018-07-22T00:34:33.824Z,95018.92
2018-07-22T00:36:59.827Z,95013.02
2018-07-22T00:39:25.837Z,95012.22
2018-07-22T00:41:51.845Z,95011.23
2018-07-22T00:44:17.850Z,95018.55
2018-07-22T00:46:43.858Z,95014.58
2018-07-22T00:49:09.864Z,95010.83
2018-07-22T00:51:35.869Z,95009.05
2018-07-22T00:54:01.897Z,95000.16
2018-07-22T00:56:27.905Z,95003.50
2018-07-22T00:58:53.913Z,95008.06
2018-07-22T01:01:19.925Z,95007.84
2018-07-22T01:03:45.932Z,95002.70
2018-07-22T01:06:11.938Z,95006.08
2018-07-22T01:08:37.978Z,94999.94
2018-07-22T01:11:03.988Z,94992.81
2018-07-22T01:13:29.996Z,95008.84
2018-07-22T01:15:55.998Z,95009.83
2018-07-22T01:18:22.008Z,95013.38
2018-07-22T01:20:48.011Z,95011.62
2018-07-22T01:23:14.018Z,95007.47
2018-07-22T01:25:40.035Z,95005.28
2018-07-22T01:28:06.047Z,95000.14
2018-07-22T01:30:32.053Z,95006.25
2018-07-22T01:32:58.070Z,95004.30
2018-07-22T01:35:24.091Z,94994.78
2018-07-22T01:37:50.088Z,94997.15
2018-07-22T01:40:16.104Z,94996.97
2018-07-22T01:42:42.117Z,95002.10
2018-07-22T01:45:08.114Z,95008.05
2018-07-22T01:47:34.151Z,95006.66
2018-07-22T01:50:00.157Z,95001.70
2018-07-22T01:52:26.159Z,95001.70
2018-07-22T01:54:52.207Z,95000.31
2018-07-22T01:57:18.246Z,94992.41
2018-07-22T01:59:44.225Z,94990.62
2018-07-22T02:02:10.231Z,94991.61
2018-07-22T02:04:36.239Z,94980.94
2018-07-22T02:07:02.239Z,94986.08
2018-07-22T02:09:28.241Z,94981.52
2018-07-22T02:11:54.243Z,94981.92
2018-07-22T02:14:20.240Z,94982.91
2018-07-22T02:16:46.247Z,94980.14
2018-07-22T02:19:12.253Z,94978.75
2018-07-22T02:21:38.250Z,94980.54
2018-07-22T02:24:04.256Z,94987.46
2018-07-22T02:26:30.261Z,94983.92
2018-07-22T02:28:56.266Z,94989.45
2018-07-22T02:31:22.270Z,94987.06
2018-07-22T02:33:48.270Z,94983.52
2018-07-22T02:36:14.271Z,94978.37
2018-07-22T02:38:40.275Z,94979.77
2018-07-22T02:41:06.285Z,94979.77
2018-07-22T02:43:32.304Z,94978.75
2018-07-22T02:45:58.307Z,94977.58
2018-07-22T02:48:24.316Z,94978.96
2018-07-22T02:50:50.323Z,94982.71
2018-07-22T02:53:16.324Z,94979.94
2018-07-22T02:55:42.332Z,94979.77
2018-07-22T02:58:08.331Z,94975.80
2018-07-22T03:00:34.341Z,94984.90
2018-07-22T03:03:00.340Z,94977.17
2018-07-22T03:05:26.380Z,94978.56
2018-07-22T03:07:52.384Z,94983.11
2018-07-22T03:10:18.389Z,94981.73
2018-07-22T03:12:44.402Z,94988.25
2018-07-22T03:15:10.408Z,94985.08
2018-07-22T03:17:36.415Z,94983.69
2018-07-22T03:20:02.425Z,94978.16
2018-07-22T03:22:28.429Z,94969.86
2018-07-22T03:24:54.433Z,94977.75
2018-07-22T03:27:20.440Z,94979.94
2018-07-22T03:29:46.442Z,94976.19
2018-07-22T03:32:12.452Z,94980.92
2018-07-22T03:34:38.454Z,94979.14
2018-07-22T03:37:04.456Z,94974.98
2018-07-22T03:39:30.467Z,94969.45
2018-07-22T03:41:56.478Z,94969.05
2018-07-22T03:44:22.478Z,94969.45
2018-07-22T03:46:48.480Z,94967.08
2018-07-22T03:49:14.491Z,94966.11
2018-07-22T03:51:40.501Z,94958.78
2018-07-22T03:54:06.499Z,94958.38
2018-07-22T03:56:32.505Z,94960.16
2018-07-22T03:58:58.510Z,94963.34
2018-07-22T04:01:24.522Z,94967.08
2018-07-22T04:03:50.520Z,94970.26
2018-07-22T04:06:16.518Z,94965.30
2018-07-22T04:08:42.525Z,94973.02
2018-07-22T04:11:08.533Z,94977.17
2018-07-22T04:13:34.563Z,94976.19
2018-07-22T04:16:00.568Z,94975.00
2018-07-22T04:18:26.569Z,94970.67
2018-07-22T04:20:52.577Z,94962.56
2018-07-22T04:23:18.630Z,94970.29
2018-07-22T04:25:44.635Z,94969.10
2018-07-22T04:28:10.641Z,94966.95
2018-07-22T04:30:36.694Z,94967.94
2018-07-22T04:33:02.700Z,94965.37
2018-07-22T04:35:28.707Z,94962.22
2018-07-22T04:37:54.755Z,94960.64
2018-07-22T04:40:20.753Z,94960.83
2018-07-22T04:42:46.764Z,94956.48
2018-07-22T04:45:12.768Z,94957.06
2018-07-22T04:47:38.770Z,94952.91
2018-07-22T04:50:04.771Z,94953.72
2018-07-22T04:52:30.778Z,94951.14
2018-07-22T04:54:56.775Z,94951.95
2018-07-22T04:57:22.778Z,94946.41
2018-07-22T04:59:48.782Z,94950.77
2018-07-22T05:02:14.788Z,94948.02
2018-07-22T05:04:40.795Z,94951.55
2018-07-22T05:07:06.800Z,94956.70
2018-07-22T05:09:32.804Z,94950.98
2018-07-22T05:11:58.807Z,94951.78
2018-07-22T05:14:24.813Z,94952.77
2018-07-22T05:16:50.813Z,94957.09
2018-07-22T05:19:16.818Z,94955.71
2018-07-22T05:21:42.818Z,94957.90
2018-07-22T05:24:08.824Z,94957.50
2018-07-22T05:26:34.830Z,94963.03
2018-07-22T05:29:00.857Z,94961.13
2018-07-22T05:31:26.869Z,94964.30
2018-07-22T05:33:52.870Z,94965.13
2018-07-22T05:36:18.884Z,94960.20
2018-07-22T05:38:44.892Z,94956.66
2018-07-22T05:41:10.902Z,94951.91
2018-07-22T05:43:36.918Z,94952.49
2018-07-22T05:46:02.920Z,94953.07
2018-07-22T05:48:28.930Z,94964.13
2018-07-22T05:50:54.982Z,94957.42
2018-07-22T05:53:21.008Z,94956.61
2018-07-22T05:55:47.105Z,94956.03
2018-07-22T05:58:13.112Z,94952.49
2018-07-22T06:00:39.121Z,94955.26
2018-07-22T06:03:05.148Z,94956.06
2018-07-22T06:05:31.124Z,94959.02
2018-07-22T06:07:57.129Z,94951.69
2018-07-22T06:10:23.130Z,94952.70
2018-07-22T06:12:49.188Z,94953.07
2018-07-22T06:15:15.160Z,94952.70
2018-07-22T06:17:41.182Z,94950.30
2018-07-22T06:20:07.171Z,94948.14
2018-07-22T06:22:33.190Z,94947.34
2018-07-22T06:24:59.212Z,94950.90
2018-07-22T06:27:25.223Z,94944.38
2018-07-22T06:29:51.340Z,94932.91
2018-07-22T06:32:17.338Z,94934.28
2018-07-22T06:34:43.347Z,94930.33
2018-07-22T06:37:09.357Z,94930.55
2018-07-22T06:39:35.370Z,94938.86
2018-07-22T06:42:01.416Z,94927.97
2018-07-22T06:44:27.418Z,94924.42
2018-07-22T06:46:53.424Z,94923.64
2018-07-22T06:49:19.460Z,94917.88
2018-07-22T06:51:45.678Z,94926.99
2018-07-22T06:54:11.682Z,94922.44
2018-07-22T06:56:37.697Z,94925.20
2018-07-22T06:59:03.694Z,94921.05
2018-07-22T07:01:29.704Z,94918.46
2018-07-22T07:03:55.704Z,94918.87
2018-07-22T07:06:21.741Z,94915.93
2018-07-22T07:08:47.748Z,94913.95
2018-07-22T07:11:13.747Z,94903.45
2018-07-22T07:13:42.900Z,94903.25
2018-07-22T07:16:08.999Z,94902.27
2018-07-22T07:18:35.015Z,94910.98
2018-07-22T07:21:01.085Z,94906.44
2018-07-22T07:23:27.362Z,94910.19
2018-07-22T07:25:53.370Z,94911.97
2018-07-22T07:28:19.374Z,94913.97
2018-07-22T07:30:45.427Z,94903.88
2018-07-22T07:33:11.823Z,94907.05
2018-07-22T07:35:37.849Z,94894.59
2018-07-22T07:38:04.116Z,94901.72
2018-07-22T07:40:30.146Z,94899.12
2018-07-22T07:42:56.186Z,94907.66
2018-07-22T07:45:22.190Z,94899.53
2018-07-22T07:47:48.191Z,94901.31
2018-07-22T07:50:14.229Z,94896.58
2018-07-22T07:52:40.284Z,94896.37
2018-07-22T07:55:06.291Z,94890.23
2018-07-22T07:57:33.141Z,94881.53
2018-07-22T07:59:59.366Z,94886.47
2018-07-22T08:02:25.933Z,94883.12
2018-07-22T08:04:51.891Z,94886.89
2018-07-22T08:07:17.904Z,94879.17
2018-07-22T08:09:43.918Z,94877.22
2018-07-22T08:12:09.924Z,94878.80
2018-07-22T08:14:35.922Z,94873.48
2018-07-22T08:17:01.936Z,94866.97
2018-07-22T08:19:27.944Z,94865.20
2018-07-22T08:21:58.132Z,94867.95
2018-07-22T08:24:24.074Z,94860.02
2018-07-22T08:26:50.078Z,94868.33
2018-07-22T08:29:16.310Z,94867.12
2018-07-22T08:31:42.119Z,94867.53
2018-07-22T08:34:08.113Z,94861.20
2018-07-22T08:36:34.124Z,94861.60
2018-07-22T08:39:00.125Z,94854.50
2018-07-22T08:41:26.168Z,94854.09
2018-07-22T08:43:52.196Z,94847.59
2018-07-22T08:46:18.208Z,94842.63
2018-07-22T08:48:44.217Z,94837.88
2018-07-22T08:51:10.219Z,94836.09
2018-07-22T08:53:36.409Z,94829.98
2018-07-22T08:56:02.467Z,94826.82
2018-07-22T08:58:28.480Z,94826.82
2018-07-22T09:00:54.491Z,94824.82
2018-07-22T09:03:20.495Z,94823.83
2018-07-22T09:05:46.507Z,94814.14
2018-07-22T09:08:12.540Z,94810.64
2018-07-22T09:10:38.534Z,94810.22
2018-07-22T09:13:04.528Z,94806.66
2018-07-22T09:15:30.538Z,94799.14
2018-07-22T09:17:56.553Z,94800.32
2018-07-22T09:20:22.549Z,94793.20
2018-07-22T09:22:48.542Z,94794.38
2018-07-22T09:25:14.549Z,94792.81
2018-07-22T09:27:40.559Z,94791.03
2018-07-22T09:30:06.574Z,94791.43
2018-07-22T09:32:32.621Z,94785.30
2018-07-22T09:35:00.552Z,94783.52
2018-07-22T09:37:26.525Z,94782.34
2018-07-22T09:39:52.532Z,94784.70
2018-07-22T09:42:18.540Z,94784.91
2018-07-22T09:44:44.550Z,94781.92
2018-07-22T09:47:10.568Z,94788.86
2018-07-22T09:49:36.571Z,94777.20
2018-07-22T09:52:02.575Z,94765.54
2018-07-22T09:54:28.606Z,94765.94
2018-07-22T09:56:54.614Z,94764.95
2018-07-22T09:59:20.622Z,94760.00
2018-07-22T10:01:46.624Z,94747.95
2018-07-22T10:04:12.615Z,94752.10
2018-07-22T10:06:38.633Z,94752.10
2018-07-22T10:09:04.639Z,94751.69
2018-07-22T10:11:30.692Z,94751.48
2018-07-22T10:13:56.691Z,94744.97
2018-07-22T10:16:22.692Z,94744.97
2018-07-22T10:18:48.700Z,94744.56
2018-07-22T10:21:14.698Z,94743.39
2018-07-22T10:23:40.710Z,94734.28
2018-07-22T10:26:06.778Z,94731.91
2018-07-22T10:28:32.803Z,94730.92
2018-07-22T10:30:58.798Z,94733.48
2018-07-22T10:33:24.806Z,94729.95
2018-07-22T10:35:50.837Z,94727.77
2018-07-22T10:38:16.810Z,94726.97
2018-07-22T10:40:42.842Z,94708.78
2018-07-22T10:43:08.836Z,94710.17
2018-07-22T10:45:34.897Z,94707.00
2018-07-22T10:48:00.910Z,94702.27
2018-07-22T10:50:26.902Z,94703.42
2018-07-22T10:52:52.906Z,94700.88
2018-07-22T10:55:18.922Z,94697.13
2018-07-22T10:57:44.922Z,94697.13
2018-07-22T11:00:10.963Z,94693.73
2018-07-22T11:02:36.967Z,94688.20
2018-07-22T11:05:02.971Z,94688.41
2018-07-22T11:07:28.971Z,94684.05
2018-07-22T11:09:54.988Z,94686.44
2018-07-22T11:12:20.996Z,94677.92
2018-07-22T11:14:47.085Z,94672.60
2018-07-22T11:17:13.003Z,94675.16
2018-07-22T11:19:39.003Z,94666.84
2018-07-22T11:22:05.008Z,94664.47
2018-07-22T11:24:31.018Z,94668.05
2018-07-22T11:26:57.023Z,94656.73
2018-07-22T11:29:23.036Z,94655.17
2018-07-22T11:31:49.064Z,94660.72
2018-07-22T11:34:15.060Z,94653.80
2018-07-22T11:36:41.063Z,94657.16
2018-07-22T11:39:07.078Z,94647.86
2018-07-22T11:41:33.073Z,94646.66
2018-07-22T11:43:59.200Z,94635.39
2018-07-22T11:46:25.185Z,94632.04
2018-07-22T11:48:51.188Z,94632.81
2018-07-22T11:51:17.204Z,94630.05
2018-07-22T11:53:43.199Z,94630.27
2018-07-22T11:56:09.206Z,94634.02
2018-07-22T11:58:35.207Z,94619.58
2018-07-22T12:01:01.211Z,94613.42
2018-07-22T12:03:27.255Z,94614.81
2018-07-22T12:05:53.300Z,94612.04
2018-07-22T12:08:19.254Z,94605.73
2018-07-22T12:10:45.258Z,94615.83
2018-07-22T12:13:11.258Z,94615.22
2018-07-22T12:15:37.270Z,94608.50
2018-07-22T12:18:03.277Z,94599.98
2018-07-22T12:20:29.287Z,94591.09
2018-07-22T12:22:55.291Z,94580.81
2018-07-22T12:25:21.300Z,94580.81
2018-07-22T12:27:47.303Z,94585.73
2018-07-22T12:30:13.304Z,94584.75
2018-07-22T12:32:39.321Z,94586.94
2018-07-22T12:35:05.327Z,94580.59
2018-07-22T12:37:31.331Z,94574.87
2018-07-22T12:39:57.371Z,94560.84
2018-07-22T12:42:23.371Z,94558.25
2018-07-22T12:44:49.379Z,94556.07
2018-07-22T12:47:15.419Z,94552.53
2018-07-22T12:49:41.418Z,94544.00
2018-07-22T12:52:07.414Z,94539.66
2018-07-22T12:54:33.423Z,94546.98
2018-07-22T12:56:59.487Z,94547.97
2018-07-22T12:59:25.501Z,94557.85
2018-07-22T13:01:51.503Z,94567.55
2018-07-22T13:04:17.544Z,94558.44
2018-07-22T13:06:43.598Z,94557.27
2018-07-22T13:09:09.549Z,94563.39
2018-07-22T13:11:35.562Z,94569.91
2018-07-22T13:14:01.565Z,94594.45
2018-07-22T13:16:27.563Z,94605.93
2018-07-22T13:18:53.629Z,94613.66
2018-07-22T13:21:19.594Z,94611.69
2018-07-22T13:23:45.602Z,94609.32
2018-07-22T13:26:11.607Z,94616.44
2018-07-22T13:28:37.607Z,94622.56
2018-07-22T13:31:03.613Z,94615.64
2018-07-22T13:33:29.610Z,94605.75
2018-07-22T13:35:55.617Z,94594.09
2018-07-22T13:38:21.681Z,94591.91
2018-07-22T13:40:47.633Z,94585.16
2018-07-22T13:43:13.644Z,94589.14
2018-07-22T13:45:39.650Z,94584.00
2018-07-22T13:48:05.693Z,94577.66
2018-07-22T13:50:31.709Z,94573.09
2018-07-22T13:52:57.862Z,94566.75
2018-07-22T13:55:23.953Z,94561.61
2018-07-22T13:57:49.994Z,94559.24
2018-07-22T14:00:16.000Z,94560.84
2018-07-22T14:02:42.036Z,94558.26
2018-07-22T14:05:08.036Z,94549.95
2018-07-22T14:07:34.091Z,94530.73
2018-07-22T14:10:00.097Z,94532.12
2018-07-22T14:12:26.106Z,94528.58
2018-07-22T14:14:52.107Z,94523.44
2018-07-22T14:17:18.212Z,94514.33
2018-07-22T14:19:44.214Z,94519.47
2018-07-22T14:22:10.226Z,94524.20
2018-07-22T14:24:36.239Z,94516.88
2018-07-22T14:27:02.249Z,94512.97
2018-07-22T14:29:28.273Z,94512.56
2018-07-22T14:31:54.344Z,94507.98
2018-07-22T14:34:20.285Z,94514.17
2018-07-22T14:36:46.294Z,94516.73
2018-07-22T14:39:12.311Z,94512.39
2018-07-22T14:41:38.330Z,94508.63
2018-07-22T14:44:04.356Z,94517.68
2018-07-22T14:46:30.368Z,94518.70
2018-07-22T14:48:56.380Z,94515.73
2018-07-22T14:51:22.380Z,94516.32
2018-07-22T14:53:48.386Z,94513.55
2018-07-22T14:56:14.400Z,94513.95
2018-07-22T14:58:40.403Z,94516.53
2018-07-22T15:01:06.413Z,94515.73
2018-07-22T15:03:32.420Z,94512.77
2018-07-22T15:05:58.428Z,94516.53
2018-07-22T15:08:24.432Z,94520.30
2018-07-22T15:10:50.441Z,94510.38
2018-07-22T15:13:16.455Z,94507.23
2018-07-22T15:15:42.474Z,94509.22
2018-07-22T15:18:08.483Z,94509.00
2018-07-22T15:20:34.490Z,94504.84
2018-07-22T15:23:00.534Z,94497.55
2018-07-22T15:25:26.533Z,94491.59
2018-07-22T15:27:52.544Z,94489.41
2018-07-22T15:30:18.584Z,94487.84
2018-07-22T15:32:44.589Z,94488.20
2018-07-22T15:35:10.612Z,94493.97
2018-07-22T15:37:36.620Z,94489.59
2018-07-22T15:40:02.644Z,94493.17
2018-07-22T15:42:28.926Z,94492.18
2018-07-22T15:44:54.922Z,94492.00
2018-07-22T15:47:20.923Z,94484.85
2018-07-22T15:49:46.922Z,94486.45
2018-07-22T15:52:12.928Z,94490.79
2018-07-22T15:54:38.935Z,94492.17
2018-07-22T15:57:04.935Z,94490.38
2018-07-22T15:59:30.982Z,94487.02
2018-07-22T16:01:56.993Z,94488.22
2018-07-22T16:04:22.987Z,94488.59
2018-07-22T16:06:48.998Z,94489.78
2018-07-22T16:09:15.000Z,94501.06
2018-07-22T16:11:41.005Z,94498.69
2018-07-22T16:14:07.104Z,94502.44
2018-07-22T16:16:33.086Z,94505.61
2018-07-22T16:18:59.092Z,94501.67
2018-07-22T16:21:25.134Z,94502.45
2018-07-22T16:23:51.141Z,94506.78
2018-07-22T16:26:17.151Z,94501.22
2018-07-22T16:28:43.162Z,94491.73
2018-07-22T16:31:09.172Z,94500.42
2018-07-22T16:33:35.208Z,94496.88
2018-07-22T16:36:01.194Z,94495.28
2018-07-22T16:38:27.207Z,94496.67
2018-07-22T16:40:53.206Z,94503.02
2018-07-22T16:43:19.242Z,94502.02
2018-07-22T16:45:45.272Z,94513.12
2018-07-22T16:48:11.235Z,94503.81
2018-07-22T16:50:37.243Z,94502.43
2018-07-22T16:53:03.246Z,94506.59
2018-07-22T16:55:29.247Z,94515.49
2018-07-22T16:57:55.250Z,94510.34
2018-07-22T17:00:21.320Z,94511.92
2018-07-22T17:02:47.321Z,94505.00
2018-07-22T17:05:13.326Z,94498.47
2018-07-22T17:07:39.332Z,94497.48
2018-07-22T17:10:05.335Z,94507.20
2018-07-22T17:12:31.357Z,94506.80
2018-07-22T17:14:57.474Z,94505.22
2018-07-22T17:17:23.511Z,94511.53
2018-07-22T17:19:49.516Z,94515.52
2018-07-22T17:22:15.520Z,94516.31
2018-07-22T17:24:41.528Z,94521.06
2018-07-22T17:27:07.524Z,94520.84
2018-07-22T17:29:33.716Z,94514.13
2018-07-22T17:31:59.717Z,94520.47
2018-07-22T17:34:25.753Z,94523.03
2018-07-22T17:36:53.125Z,94523.24
2018-07-22T17:39:19.090Z,94526.61
2018-07-22T17:41:45.094Z,94525.00
2018-07-22T17:44:11.100Z,94525.00
2018-07-22T17:46:37.107Z,94537.70
2018-07-22T17:49:03.113Z,94533.33
2018-07-22T17:51:29.124Z,94535.33
2018-07-22T17:53:55.125Z,94536.72
2018-07-22T17:56:21.128Z,94533.33
2018-07-22T17:58:47.136Z,94531.36
2018-07-22T18:01:13.163Z,94530.16
2018-07-22T18:03:39.190Z,94530.56
2018-07-22T18:06:05.203Z,94524.61
2018-07-22T18:08:31.207Z,94524.24
2018-07-22T18:10:57.218Z,94522.64
2018-07-22T18:13:23.253Z,94518.89
2018-07-22T18:15:49.251Z,94516.30
2018-07-22T18:18:15.325Z,94520.86
2018-07-22T18:20:41.322Z,94522.06
2018-07-22T18:23:07.427Z,94528.59
2018-07-22T18:25:33.376Z,94536.11
2018-07-22T18:27:59.414Z,94544.64
2018-07-22T18:30:25.391Z,94542.05
2018-07-22T18:32:51.390Z,94547.81
2018-07-22T18:35:17.391Z,94547.81
2018-07-22T18:37:43.404Z,94549.79
2018-07-22T18:40:09.425Z,94552.16
2018-07-22T18:42:35.971Z,94562.05
2018-07-22T18:45:01.945Z,94560.66
2018-07-22T18:47:27.913Z,94563.06
2018-07-22T18:49:53.956Z,94566.20
2018-07-22T18:52:19.964Z,94568.80
2018-07-22T18:54:45.965Z,94578.49
2018-07-22T18:57:11.965Z,94587.80
2018-07-22T18:59:38.028Z,94599.09
2018-07-22T19:02:03.977Z,94601.88
2018-07-22T19:04:29.980Z,94597.90
2018-07-22T19:06:56.022Z,94593.16
2018-07-22T19:09:22.066Z,94595.31
2018-07-22T19:11:48.043Z,94593.16
2018-07-22T19:14:14.052Z,94585.83
2018-07-22T19:16:40.373Z,94592.14
2018-07-22T19:19:07.000Z,94584.63
2018-07-22T19:21:34.000Z,94597.90
2018-07-22T19:24:00.546Z,94594.14
2018-07-22T19:26:28.761Z,94597.89
2018-07-22T19:28:54.757Z,94598.48
2018-07-22T19:31:20.760Z,94600.08
2018-07-22T19:33:46.770Z,94603.03
2018-07-22T19:36:12.841Z,94601.47
2018-07-22T19:38:38.851Z,94592.53
2018-07-22T19:41:06.316Z,94588.38
2018-07-22T19:43:32.336Z,94590.56
2018-07-22T19:45:58.339Z,94594.31
2018-07-22T19:48:24.336Z,94588.38
2018-07-22T19:50:50.341Z,94587.98
2018-07-22T19:53:17.132Z,94583.23
2018-07-22T19:55:43.700Z,94575.91
2018-07-22T19:58:10.611Z,94577.91
2018-07-22T20:00:37.154Z,94576.12
2018-07-22T20:03:03.928Z,94579.47
2018-07-22T20:05:29.897Z,94573.09
2018-07-22T20:07:55.890Z,94567.37
2018-07-22T20:10:21.896Z,94565.59
2018-07-22T20:12:47.900Z,94567.16
2018-07-22T20:15:13.903Z,94569.53
2018-07-22T20:17:39.906Z,94570.91
2018-07-22T20:20:05.915Z,94566.39
2018-07-22T20:22:31.933Z,94576.45
2018-07-22T20:24:57.984Z,94572.30
2018-07-22T20:27:23.983Z,94576.09
2018-07-22T20:29:50.025Z,94579.84
2018-07-22T20:32:16.045Z,94584.00
2018-07-22T20:34:42.057Z,94577.26
2018-07-22T20:37:08.071Z,94579.63
2018-07-22T20:39:34.070Z,94578.45
2018-07-22T20:42:00.089Z,94586.16
2018-07-22T20:44:26.114Z,94579.84
2018-07-22T20:46:52.134Z,94582.21
2018-07-22T20:49:18.143Z,94597.05
2018-07-22T20:51:44.152Z,94599.64
2018-07-22T20:54:10.188Z,94603.39
2018-07-22T20:56:36.205Z,94604.16
2018-07-22T20:59:02.232Z,94602.98
2018-07-22T21:01:28.290Z,94600.62
2018-07-22T21:03:54.301Z,94590.30
2018-07-22T21:06:20.304Z,94593.88
2018-07-22T21:08:46.306Z,94598.25
2018-07-22T21:11:12.324Z,94601.39
2018-07-22T21:13:38.332Z,94609.11
2018-07-22T21:16:04.336Z,94608.31
2018-07-22T21:18:30.339Z,94605.17
2018-07-22T21:20:56.349Z,94614.07
2018-07-22T21:23:22.386Z,94611.30
2018-07-22T21:25:48.394Z,94607.14
2018-07-22T21:28:14.444Z,94617.83
2018-07-22T21:30:40.415Z,94625.95
2018-07-22T21:33:06.455Z,94634.86
2018-07-22T21:35:32.459Z,94637.42
2018-07-22T21:37:58.496Z,94634.86
2018-07-22T21:40:24.539Z,94636.03
2018-07-22T21:42:50.497Z,94639.59
2018-07-22T21:45:16.498Z,94649.69
2018-07-22T21:47:42.503Z,94648.89
2018-07-22T21:50:08.507Z,94663.36
2018-07-22T21:52:34.511Z,94659.79
2018-07-22T21:55:00.518Z,94663.16
2018-07-22T21:57:26.526Z,94648.18
2018-07-22T21:59:52.522Z,94655.12
2018-07-22T22:02:18.523Z,94659.28
2018-07-22T22:04:44.525Z,94652.75
2018-07-22T22:07:10.524Z,94650.97
2018-07-22T22:09:36.527Z,94655.71
2018-07-22T22:12:02.534Z,94651.16
2018-07-22T22:14:28.538Z,94646.99
2018-07-22T22:16:54.545Z,94650.97
2018-07-22T22:19:20.564Z,94652.34
2018-07-22T22:21:46.569Z,94663.44
2018-07-22T22:24:12.571Z,94676.89
2018-07-22T22:26:38.566Z,94665.22
2018-07-22T22:29:04.572Z,94671.13
2018-07-22T22:31:30.576Z,94679.66
2018-07-22T22:33:56.582Z,94670.95
2018-07-22T22:36:22.584Z,94665.98
2018-07-22T22:38:48.678Z,94669.96
2018-07-22T22:41:14.678Z,94669.55
2018-07-22T22:43:40.684Z,94661.43
2018-07-22T22:46:06.685Z,94651.14
2018-07-22T22:48:32.683Z,94641.44
2018-07-22T22:50:58.678Z,94635.09
2018-07-22T22:53:24.685Z,94638.88
2018-07-22T22:55:50.692Z,94638.48
2018-07-22T22:58:16.697Z,94638.27
2018-07-22T23:00:42.698Z,94636.11
2018-07-22T23:03:08.705Z,94628.16
2018-07-22T23:05:34.703Z,94629.55
2018-07-22T23:08:00.714Z,94639.06
2018-07-22T23:10:26.720Z,94646.00
2018-07-22T23:12:52.722Z,94639.87
2018-07-22T23:15:18.723Z,94635.31
2018-07-22T23:17:44.724Z,94637.86
2018-07-22T23:20:10.725Z,94634.11
2018-07-22T23:22:36.725Z,94622.25
2018-07-22T23:25:02.730Z,94619.48
2018-07-22T23:27:28.735Z,94624.22
2018-07-22T23:29:54.737Z,94617.88
2018-07-22T23:32:20.741Z,94616.89
2018-07-22T23:34:46.751Z,94613.32
2018-07-22T23:37:12.754Z,94610.55
2018-07-22T23:39:38.750Z,94607.78
2018-07-22T23:42:04.799Z,94621.23
2018-07-22T23:44:30.806Z,94617.29
2018-07-22T23:46:56.800Z,94605.41
2018-07-22T23:49:22.805Z,94608.58
2018-07-22T23:51:48.805Z,94609.96
2018-07-22T23:54:14.831Z,94609.16
2018-07-22T23:56:40.833Z,94608.17
2018-07-22T23:59:06.834Z,94610.95
